Time;durP1;ratioP1;P1;durP2;ratioP2;P2;SDS_P1;SDS_P2;PMS_P1;PMS_P2;Temp;Humidity;BMP_temperature;BMP_pressure;BME280_temperature;BME280_humidity;BME280_pressure;Samples;Min_cycle;Max_cycle;Signal;HPM_P1;HPM_P2
2023/12/29 00:01:59;;;;;;;9.18;6.32;;;9.30;99.90;;;;;;5053433;28;20013;-91
2023/12/29 00:04:25;;;;;;;8.25;5.50;;;9.40;99.90;;;;;;5047529;28;20036;-93
2023/12/29 00:06:51;;;;;;;8.45;5.15;;;9.30;99.90;;;;;;5051115;28;20033;-91
2023/12/29 00:09:21;;;;;;;7.47;6.10;;;9.20;99.90;;;;;;5057844;28;20087;-91
2023/12/29 00:11:50;;;;;;;8.18;5.80;;;9.20;99.90;;;;;;5052848;28;20025;-91
2023/12/29 00:14:16;;;;;;;9.23;6.95;;;9.20;99.90;;;;;;5052183;28;20028;-90
2023/12/29 00:16:43;;;;;;;10.98;8.88;;;9.20;99.90;;;;;;5057888;28;20032;-90
2023/12/29 00:19:09;;;;;;;8.20;7.15;;;9.10;99.90;;;;;;5052877;28;20025;-90
2023/12/29 00:21:36;;;;;;;10.77;9.13;;;9.10;99.90;;;;;;5057624;28;20032;-90
2023/12/29 00:24:02;;;;;;;8.90;6.47;;;9.10;99.90;;;;;;5052906;28;20029;-93
2023/12/29 00:26:28;;;;;;;8.73;7.65;;;9.00;99.90;;;;;;5061815;28;20032;-91
2023/12/29 00:28:54;;;;;;;9.52;6.68;;;8.90;99.90;;;;;;5050769;28;20511;-91
2023/12/29 00:31:20;;;;;;;10.82;7.28;;;8.90;99.90;;;;;;5050660;28;20399;-92
2023/12/29 00:33:46;;;;;;;10.32;6.30;;;8.80;99.90;;;;;;5051278;28;20025;-92
2023/12/29 00:36:16;;;;;;;7.97;6.15;;;8.90;99.90;;;;;;5045230;28;20067;-91
2023/12/29 00:38:42;;;;;;;9.75;8.02;;;8.90;99.90;;;;;;5046665;28;20037;-91
2023/12/29 00:41:07;;;;;;;10.85;7.05;;;8.90;99.90;;;;;;5052599;28;20406;-91
2023/12/29 00:43:33;;;;;;;10.00;6.55;;;8.90;99.90;;;;;;5047086;28;20039;-91
2023/12/29 00:46:01;;;;;;;10.98;7.97;;;8.90;99.90;;;;;;5053010;28;20037;-90
2023/12/29 00:48:27;;;;;;;9.63;6.88;;;8.90;99.90;;;;;;5047354;28;20569;-91
2023/12/29 00:50:53;;;;;;;9.65;6.88;;;8.90;99.90;;;;;;5063199;28;20032;-91
2023/12/29 00:53:18;;;;;;;9.63;6.40;;;8.90;99.90;;;;;;5073200;28;20020;-92
2023/12/29 00:55:44;;;;;;;9.98;8.90;;;8.90;99.90;;;;;;5068181;28;20670;-91
2023/12/29 00:58:09;;;;;;;9.80;7.85;;;8.90;99.90;;;;;;5057063;28;20021;-91
2023/12/29 01:00:35;;;;;;;10.82;9.13;;;8.80;99.90;;;;;;5063501;28;20052;-92
2023/12/29 01:03:01;;;;;;;9.52;6.68;;;8.80;99.90;;;;;;5050959;28;20530;-91
2023/12/29 01:05:27;;;;;;;10.32;8.13;;;8.70;99.90;;;;;;5057838;28;20021;-91
2023/12/29 01:07:54;;;;;;;11.10;7.95;;;8.70;99.90;;;;;;5050491;28;20124;-91
2023/12/29 01:10:20;;;;;;;8.77;7.35;;;8.80;99.90;;;;;;5058224;28;20029;-92
2023/12/29 01:12:45;;;;;;;9.25;8.20;;;8.70;99.90;;;;;;5055012;28;20028;-91
2023/12/29 01:15:11;;;;;;;8.90;8.00;;;8.70;99.90;;;;;;5055452;28;20021;-93
2023/12/29 01:17:37;;;;;;;10.30;8.45;;;8.80;99.90;;;;;;5055855;28;20037;-90
2023/12/29 01:20:06;;;;;;;11.70;9.98;;;8.70;99.90;;;;;;5054996;28;20506;-91
2023/12/29 01:22:31;;;;;;;9.90;8.68;;;8.70;99.90;;;;;;5054210;28;20104;-93
2023/12/29 01:25:00;;;;;;;9.50;8.60;;;8.70;99.90;;;;;;5055424;28;20032;-91
2023/12/29 01:27:26;;;;;;;10.10;6.72;;;8.60;99.90;;;;;;5055319;28;20758;-92
2023/12/29 01:29:52;;;;;;;10.48;7.43;;;8.70;99.90;;;;;;5050322;28;20034;-91
2023/12/29 01:32:21;;;;;;;9.65;7.55;;;8.70;99.90;;;;;;5052905;28;20036;-92
2023/12/29 01:34:47;;;;;;;8.95;7.28;;;8.70;99.90;;;;;;5062602;28;20024;-91
2023/12/29 01:37:12;;;;;;;9.25;6.07;;;8.70;99.90;;;;;;5061018;28;20094;-91
2023/12/29 01:39:39;;;;;;;10.75;9.15;;;8.70;99.90;;;;;;5053019;28;20033;-91
2023/12/29 01:42:06;;;;;;;9.50;6.38;;;8.80;99.90;;;;;;5054927;28;20103;-91
2023/12/29 01:44:32;;;;;;;8.88;7.70;;;8.80;99.90;;;;;;5055290;28;20025;-89
2023/12/29 01:47:00;;;;;;;10.45;8.48;;;8.90;99.90;;;;;;5051275;28;20028;-91
2023/12/29 01:49:27;;;;;;;9.40;8.20;;;8.90;99.90;;;;;;5050895;28;20032;-91
2023/12/29 01:52:02;;;;;;;9.07;8.15;;;8.90;99.90;;;;;;5050731;28;20051;-91
2023/12/29 01:54:40;;;;;;;11.43;6.95;;;8.90;99.90;;;;;;5051010;28;20028;-90
2023/12/29 01:57:08;;;;;;;13.98;6.43;;;8.90;99.90;;;;;;5055017;28;20021;-92
2023/12/29 01:59:35;;;;;;;11.32;7.60;;;8.90;99.90;;;;;;5057335;28;20045;-91
2023/12/29 02:02:01;;;;;;;9.73;8.70;;;8.90;99.90;;;;;;5064654;28;20028;-89
2023/12/29 02:04:28;;;;;;;12.27;8.32;;;8.90;99.90;;;;;;5054097;28;20029;-91
2023/12/29 02:06:55;;;;;;;9.57;6.47;;;9.00;99.90;;;;;;5056404;28;20044;-91
2023/12/29 02:09:21;;;;;;;10.27;7.50;;;9.00;99.90;;;;;;5053463;28;20417;-91
2023/12/29 02:11:47;;;;;;;10.02;6.78;;;9.00;99.90;;;;;;5056074;28;20036;-91
2023/12/29 02:14:15;;;;;;;10.75;7.32;;;9.00;99.90;;;;;;5056501;28;20025;-89
2023/12/29 02:16:48;;;;;;;;;;;9.00;99.90;;;;;;5054424;28;20040;-92
2023/12/29 02:19:29;;;;;;;8.63;5.07;;;9.10;99.90;;;;;;5055029;28;20005;-91
2023/12/29 02:21:55;;;;;;;9.20;5.45;;;9.10;99.90;;;;;;5061095;28;20037;-91
2023/12/29 02:24:20;;;;;;;9.10;8.27;;;9.10;99.90;;;;;;5059915;28;20024;-92
2023/12/29 02:26:53;;;;;;;8.23;6.13;;;9.10;99.90;;;;;;5053330;28;20056;-92
2023/12/29 02:29:24;;;;;;;9.75;8.60;;;9.10;99.90;;;;;;5053354;28;20075;-91
2023/12/29 02:31:54;;;;;;;7.70;6.93;;;9.10;99.90;;;;;;5055108;28;20029;-91
2023/12/29 02:34:23;;;;;;;7.93;5.20;;;9.10;99.90;;;;;;5058044;28;20534;-90
2023/12/29 02:36:50;;;;;;;7.93;7.13;;;9.10;99.90;;;;;;5054125;28;20025;-91
2023/12/29 02:39:16;;;;;;;8.05;4.70;;;9.10;99.90;;;;;;5060242;28;20017;-91
2023/12/29 02:41:42;;;;;;;7.63;6.93;;;9.10;99.90;;;;;;5052922;28;20666;-91
2023/12/29 02:44:08;;;;;;;7.95;5.55;;;9.10;99.90;;;;;;5046855;28;20029;-92
2023/12/29 02:46:33;;;;;;;9.50;5.93;;;9.10;99.90;;;;;;5052228;28;20052;-91
2023/12/29 02:48:59;;;;;;;9.25;6.18;;;9.10;99.90;;;;;;5052339;28;20037;-90
2023/12/29 02:51:25;;;;;;;7.93;6.85;;;9.10;99.90;;;;;;5046645;28;20055;-90
2023/12/29 02:53:50;;;;;;;9.20;7.72;;;9.10;99.90;;;;;;5052279;28;20028;-91
2023/12/29 02:56:16;;;;;;;7.88;6.63;;;9.10;99.90;;;;;;5055195;28;20025;-92
2023/12/29 02:58:42;;;;;;;9.00;8.05;;;9.00;99.90;;;;;;5052450;28;20116;-91
2023/12/29 03:01:07;;;;;;;8.55;7.65;;;9.00;99.90;;;;;;5053304;28;20116;-93
2023/12/29 03:03:34;;;;;;;9.68;8.65;;;9.00;99.90;;;;;;5053224;28;20080;-90
2023/12/29 03:05:59;;;;;;;7.85;7.05;;;9.00;99.90;;;;;;5056598;28;20036;-92
2023/12/29 03:08:25;;;;;;;8.75;5.28;;;8.90;99.90;;;;;;5050421;28;20033;-92
2023/12/29 03:10:51;;;;;;;7.53;5.82;;;9.00;99.90;;;;;;5053371;28;20024;-92
2023/12/29 03:13:16;;;;;;;7.45;5.40;;;8.90;99.90;;;;;;5046207;28;20082;-90
2023/12/29 03:15:42;;;;;;;6.90;4.22;;;9.00;99.90;;;;;;5057396;28;20025;-90
2023/12/29 03:18:08;;;;;;;7.63;6.53;;;9.00;99.90;;;;;;5053016;28;20079;-90
2023/12/29 03:20:33;;;;;;;7.72;6.75;;;9.00;99.90;;;;;;5053744;28;20021;-90
2023/12/29 03:22:59;;;;;;;6.30;4.25;;;9.10;99.90;;;;;;5049972;28;20036;-92
2023/12/29 03:25:25;;;;;;;7.63;5.75;;;9.00;99.90;;;;;;5050153;28;20032;-91
2023/12/29 03:27:50;;;;;;;6.88;6.22;;;9.00;99.90;;;;;;5050066;28;20035;-91
2023/12/29 03:30:16;;;;;;;9.02;6.38;;;9.10;99.90;;;;;;5052959;28;20021;-91
2023/12/29 03:32:41;;;;;;;9.55;5.13;;;9.00;99.90;;;;;;5052595;28;20392;-91
2023/12/29 03:35:07;;;;;;;6.43;5.30;;;9.00;99.90;;;;;;5058839;28;20032;-91
2023/12/29 03:37:33;;;;;;;9.32;7.45;;;9.00;99.90;;;;;;5050747;28;20083;-91
2023/12/29 03:39:58;;;;;;;10.00;6.00;;;8.90;99.90;;;;;;5056369;28;20017;-91
2023/12/29 03:42:24;;;;;;;8.55;6.65;;;8.90;99.90;;;;;;5050197;28;20025;-92
2023/12/29 03:44:50;;;;;;;8.25;5.47;;;8.80;99.90;;;;;;5050553;28;20480;-91
2023/12/29 03:47:15;;;;;;;7.70;6.90;;;8.80;99.90;;;;;;5045440;28;20083;-90
2023/12/29 03:49:41;;;;;;;11.43;6.05;;;8.80;99.90;;;;;;5050334;28;20029;-92
2023/12/29 03:52:07;;;;;;;9.63;6.68;;;8.80;99.90;;;;;;5052568;28;20069;-91
2023/12/29 03:54:32;;;;;;;7.72;6.05;;;8.80;99.90;;;;;;5067287;28;20028;-91
2023/12/29 03:56:58;;;;;;;9.32;6.22;;;8.80;99.90;;;;;;5057483;28;20029;-91
2023/12/29 03:59:23;;;;;;;9.18;5.18;;;8.80;99.90;;;;;;5072359;28;20028;-91
2023/12/29 04:01:49;;;;;;;9.00;6.40;;;8.80;99.90;;;;;;5058255;28;20039;-92
2023/12/29 04:04:15;;;;;;;11.75;6.65;;;8.80;99.90;;;;;;5071722;28;20428;-91
2023/12/29 04:06:40;;;;;;;8.80;7.22;;;8.80;99.90;;;;;;5052520;28;20625;-92
2023/12/29 04:09:06;;;;;;;9.02;5.22;;;8.70;99.90;;;;;;5051602;28;20111;-91
2023/12/29 04:11:32;;;;;;;9.75;5.60;;;8.80;99.90;;;;;;5051023;28;20100;-91
2023/12/29 04:13:57;;;;;;;7.95;6.47;;;8.80;99.90;;;;;;5049997;28;20033;-91
2023/12/29 04:16:23;;;;;;;7.82;7.03;;;8.80;99.90;;;;;;5050558;28;20025;-92
2023/12/29 04:18:49;;;;;;;7.88;5.80;;;8.80;99.90;;;;;;5051368;28;20025;-92
2023/12/29 04:21:15;;;;;;;8.00;5.65;;;8.80;99.90;;;;;;5046346;28;20537;-91
2023/12/29 04:23:43;;;;;;;9.27;5.93;;;8.70;99.90;;;;;;5047519;28;20032;-91
2023/12/29 04:26:10;;;;;;;8.75;5.22;;;8.70;99.90;;;;;;5049719;28;20025;-91
2023/12/29 04:28:35;;;;;;;8.27;7.30;;;8.70;99.90;;;;;;5052346;28;20494;-91
2023/12/29 04:31:01;;;;;;;7.78;5.78;;;8.70;99.90;;;;;;5051577;28;20033;-91
2023/12/29 04:33:27;;;;;;;9.70;8.30;;;8.70;99.90;;;;;;5049741;28;20017;-92
2023/12/29 04:35:52;;;;;;;9.00;7.60;;;8.70;99.90;;;;;;5047121;28;20025;-91
2023/12/29 04:38:19;;;;;;;7.28;5.97;;;8.80;99.90;;;;;;5052663;28;20025;-90
2023/12/29 04:40:47;;;;;;;9.88;7.75;;;8.70;99.90;;;;;;5048722;28;20083;-91
2023/12/29 04:43:13;;;;;;;9.88;6.25;;;8.70;99.90;;;;;;5050237;28;20032;-92
2023/12/29 04:45:38;;;;;;;7.50;5.90;;;8.80;99.90;;;;;;5051749;28;20025;-91
2023/12/29 04:48:04;;;;;;;7.63;5.43;;;8.80;99.90;;;;;;5052829;28;20399;-92
2023/12/29 04:50:30;;;;;;;8.30;5.90;;;8.80;99.90;;;;;;5054179;28;20423;-91
2023/12/29 04:52:56;;;;;;;8.95;6.03;;;8.90;99.90;;;;;;5057716;28;20029;-91
2023/12/29 04:55:21;;;;;;;8.85;5.38;;;8.80;99.90;;;;;;5055249;28;20036;-91
2023/12/29 04:57:47;;;;;;;8.68;5.93;;;8.90;99.90;;;;;;5059437;28;20039;-93
2023/12/29 05:00:13;;;;;;;9.25;6.55;;;8.90;99.90;;;;;;5055206;28;20445;-92
2023/12/29 05:02:39;;;;;;;8.35;6.22;;;8.90;99.90;;;;;;5059233;28;20414;-92
2023/12/29 05:05:05;;;;;;;8.10;5.70;;;8.80;99.90;;;;;;5060255;28;20031;-90
2023/12/29 05:07:30;;;;;;;7.60;5.55;;;8.80;99.90;;;;;;5055371;28;20024;-90
2023/12/29 05:09:56;;;;;;;9.73;6.88;;;8.70;99.90;;;;;;5062939;28;20039;-91
2023/12/29 05:12:21;;;;;;;7.75;6.10;;;8.70;99.90;;;;;;5072537;28;20064;-92
2023/12/29 05:14:47;;;;;;;9.82;5.47;;;8.70;99.90;;;;;;5074621;28;20099;-91
2023/12/29 05:17:13;;;;;;;7.00;4.93;;;8.70;99.90;;;;;;5080107;28;20132;-90
2023/12/29 05:19:38;;;;;;;9.07;5.97;;;8.70;99.90;;;;;;5067920;28;20031;-92
2023/12/29 05:22:04;;;;;;;9.38;6.38;;;8.70;99.90;;;;;;5063440;28;20021;-91
2023/12/29 05:24:29;;;;;;;9.43;6.15;;;8.60;99.90;;;;;;5054304;28;20024;-91
2023/12/29 05:26:55;;;;;;;9.85;8.95;;;8.60;99.90;;;;;;5053883;28;20021;-91
2023/12/29 05:29:21;;;;;;;9.32;5.90;;;8.70;99.90;;;;;;5054576;28;20032;-93
2023/12/29 05:31:46;;;;;;;6.95;5.50;;;8.60;99.90;;;;;;5053810;28;20024;-91
2023/12/29 05:34:12;;;;;;;8.73;6.35;;;8.60;99.90;;;;;;5053357;28;20480;-91
2023/12/29 05:36:38;;;;;;;9.60;6.18;;;8.60;99.90;;;;;;5052600;28;20017;-93
2023/12/29 05:39:04;;;;;;;6.20;5.00;;;8.60;99.90;;;;;;5051523;28;20703;-91
2023/12/29 05:41:30;;;;;;;7.75;6.30;;;8.60;99.90;;;;;;5056987;28;20036;-91
2023/12/29 05:43:57;;;;;;;9.73;5.82;;;8.50;99.90;;;;;;5051776;28;20059;-92
2023/12/29 05:46:23;;;;;;;7.55;5.00;;;8.50;99.90;;;;;;5054391;28;20083;-91
2023/12/29 05:48:51;;;;;;;7.53;5.47;;;8.50;99.90;;;;;;5054186;28;20036;-92
2023/12/29 05:51:16;;;;;;;8.60;7.28;;;8.40;99.90;;;;;;5054969;28;20021;-91
2023/12/29 05:53:43;;;;;;;7.65;5.18;;;8.40;99.90;;;;;;5054087;28;20025;-91
2023/12/29 05:56:12;;;;;;;7.97;5.47;;;8.40;99.90;;;;;;5053626;28;20021;-92
2023/12/29 05:58:38;;;;;;;7.15;5.18;;;8.40;99.90;;;;;;5067675;28;20492;-91
2023/12/29 06:01:03;;;;;;;7.18;5.45;;;8.40;99.90;;;;;;5060398;28;20087;-93
2023/12/29 06:03:29;;;;;;;9.02;5.53;;;8.30;99.90;;;;;;5054704;28;20021;-91
2023/12/29 06:05:55;;;;;;;8.60;5.68;;;8.30;99.90;;;;;;5053635;28;20064;-92
2023/12/29 06:08:20;;;;;;;8.70;7.80;;;8.30;99.90;;;;;;5054086;28;20035;-91
2023/12/29 06:10:46;;;;;;;9.30;8.00;;;8.30;99.90;;;;;;5048859;28;20021;-92
2023/12/29 06:13:12;;;;;;;8.10;5.03;;;8.30;99.90;;;;;;5053726;28;20032;-91
2023/12/29 06:15:38;;;;;;;9.25;5.72;;;8.30;99.90;;;;;;5052964;28;20025;-90
2023/12/29 06:18:04;;;;;;;8.40;7.10;;;8.30;99.90;;;;;;5053727;28;20033;-91
2023/12/29 06:20:30;;;;;;;7.15;4.45;;;8.30;99.90;;;;;;5051502;28;20024;-91
2023/12/29 06:22:55;;;;;;;7.60;6.75;;;8.30;99.90;;;;;;5052799;28;20025;-91
2023/12/29 06:25:21;;;;;;;9.27;5.50;;;8.30;99.90;;;;;;5054646;28;20027;-93
2023/12/29 06:27:48;;;;;;;11.23;6.15;;;8.30;99.90;;;;;;5057035;28;20021;-91
2023/12/29 06:30:13;;;;;;;9.05;7.20;;;8.40;99.90;;;;;;5050194;28;20032;-92
2023/12/29 06:32:39;;;;;;;8.65;7.80;;;8.40;99.90;;;;;;5052111;28;20017;-93
2023/12/29 06:35:06;;;;;;;9.77;7.88;;;8.30;99.90;;;;;;5055444;28;20025;-91
2023/12/29 06:37:32;;;;;;;9.38;5.57;;;8.30;99.90;;;;;;5049761;28;20025;-91
2023/12/29 06:39:57;;;;;;;11.05;5.97;;;8.30;99.90;;;;;;5052063;28;20510;-91
2023/12/29 06:42:23;;;;;;;8.38;6.25;;;8.40;99.90;;;;;;5053072;28;20135;-91
2023/12/29 06:44:49;;;;;;;9.63;5.43;;;8.40;99.90;;;;;;5053104;28;20025;-91
2023/12/29 06:47:14;;;;;;;7.72;5.22;;;8.30;99.90;;;;;;5054226;28;20025;-90
2023/12/29 06:49:41;;;;;;;7.80;5.75;;;8.40;99.90;;;;;;5054211;28;20434;-92
2023/12/29 06:52:06;;;;;;;7.75;5.47;;;8.30;99.90;;;;;;5054095;28;20326;-91
2023/12/29 06:54:34;;;;;;;7.05;5.25;;;8.30;99.90;;;;;;5059775;28;20024;-91
2023/12/29 06:57:00;;;;;;;10.05;5.85;;;8.40;99.90;;;;;;5060697;28;20025;-93
2023/12/29 06:59:26;;;;;;;11.25;5.85;;;8.30;99.90;;;;;;5076210;28;20092;-93
2023/12/29 07:01:51;;;;;;;6.95;5.57;;;8.30;99.90;;;;;;5075267;28;20024;-93
2023/12/29 07:04:17;;;;;;;8.52;5.68;;;8.30;99.90;;;;;;5076415;28;20017;-91
2023/12/29 07:06:43;;;;;;;10.38;6.10;;;8.30;99.90;;;;;;5067558;28;20074;-91
2023/12/29 07:09:09;;;;;;;10.57;6.22;;;8.30;99.90;;;;;;5052980;28;20053;-91
2023/12/29 07:11:36;;;;;;;8.27;5.75;;;8.40;99.90;;;;;;5053169;28;20021;-91
2023/12/29 07:14:02;;;;;;;6.93;5.22;;;8.40;99.90;;;;;;5053286;28;20025;-91
2023/12/29 07:16:28;;;;;;;7.65;5.82;;;8.50;99.90;;;;;;5052284;28;20017;-91
2023/12/29 07:18:53;;;;;;;6.85;5.22;;;8.50;99.90;;;;;;5053387;28;20035;-91
2023/12/29 07:21:19;;;;;;;10.20;4.90;;;8.50;99.90;;;;;;5054736;28;20029;-91
2023/12/29 07:23:45;;;;;;;8.35;7.32;;;8.60;99.90;;;;;;5057844;28;20033;-91
2023/12/29 07:26:21;;;;;;;7.07;5.20;;;8.70;99.90;;;;;;5063768;28;20024;-93
2023/12/29 07:28:46;;;;;;;9.20;6.47;;;8.60;99.90;;;;;;5067997;28;20020;-94
2023/12/29 07:31:27;;;;;;;8.40;5.80;;;8.70;99.90;;;;;;5056823;28;20021;-93
2023/12/29 07:34:14;;;;;;;6.63;4.68;;;8.70;99.90;;;;;;5001447;28;20060;-93
2023/12/29 07:36:53;;;;;;;10.65;8.25;;;8.70;99.90;;;;;;5058703;28;20094;-93
2023/12/29 07:39:19;;;;;;;8.65;6.47;;;8.70;99.90;;;;;;5041925;28;20033;-92
2023/12/29 07:41:45;;;;;;;7.47;4.88;;;8.70;99.90;;;;;;5060175;28;20407;-93
2023/12/29 07:44:11;;;;;;;7.20;4.97;;;8.70;99.90;;;;;;5054469;28;20033;-92
2023/12/29 07:46:41;;;;;;;7.22;6.53;;;8.80;99.90;;;;;;5052850;28;20497;-92
2023/12/29 07:49:06;;;;;;;8.65;6.45;;;8.80;99.90;;;;;;5053866;28;20098;-94
2023/12/29 07:51:33;;;;;;;7.63;5.25;;;8.80;99.90;;;;;;5052760;28;20364;-93
2023/12/29 07:53:58;;;;;;;10.20;7.30;;;8.80;99.90;;;;;;5062650;28;20055;-92
2023/12/29 07:56:24;;;;;;;6.72;4.78;;;8.80;99.90;;;;;;5049964;28;20022;-93
2023/12/29 07:58:49;;;;;;;10.93;7.88;;;8.90;99.90;;;;;;5055989;28;20028;-93
2023/12/29 08:01:15;;;;;;;7.18;5.18;;;8.80;99.90;;;;;;5053665;28;20104;-92
2023/12/29 08:03:41;;;;;;;7.20;6.55;;;8.90;99.90;;;;;;5057310;28;20025;-94
2023/12/29 08:06:06;;;;;;;8.68;7.40;;;8.90;99.90;;;;;;5058595;28;20038;-94
2023/12/29 08:08:32;;;;;;;7.82;5.00;;;9.00;99.90;;;;;;5059464;28;20052;-93
2023/12/29 08:10:58;;;;;;;8.27;7.45;;;9.00;99.90;;;;;;5066314;28;20025;-94
2023/12/29 08:13:26;;;;;;;7.65;4.93;;;9.00;99.90;;;;;;5064709;28;20442;-93
2023/12/29 08:15:52;;;;;;;8.55;5.25;;;9.10;99.90;;;;;;5065423;28;20025;-92
2023/12/29 08:18:18;;;;;;;8.50;5.65;;;9.10;99.90;;;;;;5062624;28;20052;-95
2023/12/29 08:20:44;;;;;;;7.68;5.95;;;9.10;99.90;;;;;;5054855;28;20093;-93
2023/12/29 08:23:09;;;;;;;8.32;6.45;;;9.10;99.90;;;;;;5063190;28;20052;-93
2023/12/29 08:25:36;;;;;;;8.43;7.45;;;9.10;99.90;;;;;;5060268;28;20020;-93
2023/12/29 08:28:07;;;;;;;9.05;7.78;;;9.10;99.90;;;;;;5059133;28;20095;-93
2023/12/29 08:30:37;;;;;;;7.63;4.78;;;9.00;99.90;;;;;;5047964;28;20029;-94
2023/12/29 08:33:03;;;;;;;8.90;5.72;;;9.00;99.90;;;;;;5047652;28;20793;-94
2023/12/29 08:35:29;;;;;;;7.00;4.68;;;9.10;99.90;;;;;;5056081;28;20059;-93
2023/12/29 08:37:55;;;;;;;7.63;6.93;;;9.10;99.90;;;;;;5065379;28;20021;-93
2023/12/29 08:40:21;;;;;;;7.30;5.25;;;9.20;99.90;;;;;;5070787;28;20024;-95
2023/12/29 08:42:46;;;;;;;8.25;6.68;;;9.20;99.90;;;;;;5057452;28;20654;-92
2023/12/29 08:45:13;;;;;;;8.82;5.72;;;9.10;99.90;;;;;;5056924;28;20024;-92
2023/12/29 08:47:39;;;;;;;6.82;5.68;;;9.20;99.90;;;;;;5056359;28;20112;-93
2023/12/29 08:50:06;;;;;;;7.22;5.53;;;9.20;99.90;;;;;;5051230;28;20028;-93
2023/12/29 08:52:33;;;;;;;8.20;7.05;;;9.20;99.90;;;;;;5063901;28;20032;-95
2023/12/29 08:54:58;;;;;;;8.60;5.28;;;9.30;99.90;;;;;;5058472;28;20033;-93
2023/12/29 08:57:24;;;;;;;10.07;5.63;;;9.40;99.90;;;;;;5053327;28;20432;-93
2023/12/29 08:59:51;;;;;;;8.90;4.97;;;9.40;99.90;;;;;;5047402;28;20496;-93
2023/12/29 09:02:16;;;;;;;9.55;5.78;;;9.50;99.90;;;;;;5056560;28;20036;-94
2023/12/29 09:04:48;;;;;;;7.30;5.25;;;9.50;99.90;;;;;;5056885;28;20541;-93
2023/12/29 09:07:14;;;;;;;6.47;5.20;;;9.50;99.90;;;;;;5057471;28;20407;-93
2023/12/29 09:09:40;;;;;;;5.78;5.18;;;9.60;99.90;;;;;;5060365;28;20044;-94
2023/12/29 09:12:08;;;;;;;6.38;5.45;;;9.70;99.90;;;;;;5059980;28;20541;-94
2023/12/29 09:14:36;;;;;;;7.93;7.15;;;9.70;99.90;;;;;;5062439;28;20060;-95
2023/12/29 09:17:02;;;;;;;6.97;6.00;;;9.70;99.90;;;;;;5059406;28;20038;-94
2023/12/29 09:19:28;;;;;;;8.52;6.20;;;9.80;99.90;;;;;;5075914;28;20029;-94
2023/12/29 09:21:54;;;;;;;7.40;6.70;;;9.80;99.90;;;;;;5058232;28;20044;-94
2023/12/29 09:24:19;;;;;;;6.72;5.85;;;9.90;99.90;;;;;;5061431;28;20074;-95
2023/12/29 09:26:45;;;;;;;7.32;6.63;;;9.90;99.90;;;;;;5054834;28;20103;-95
2023/12/29 09:29:11;;;;;;;5.43;4.55;;;10.00;99.90;;;;;;5060089;28;20029;-95
2023/12/29 09:31:36;;;;;;;7.20;5.05;;;10.10;99.90;;;;;;5050055;28;20024;-93
2023/12/29 09:34:02;;;;;;;5.32;4.82;;;10.20;99.90;;;;;;5067834;28;20035;-95
2023/12/29 09:36:28;;;;;;;5.93;5.32;;;10.20;99.90;;;;;;5064125;28;20028;-93
2023/12/29 09:38:54;;;;;;;5.35;4.85;;;10.20;99.90;;;;;;5063285;28;20029;-94
2023/12/29 09:41:23;;;;;;;5.72;4.97;;;10.20;99.90;;;;;;5062204;28;20067;-94
2023/12/29 09:43:50;;;;;;;6.03;4.05;;;10.30;99.90;;;;;;5059917;28;20438;-93
2023/12/29 09:46:18;;;;;;;5.32;4.88;;;10.30;99.90;;;;;;5067635;28;20017;-94
2023/12/29 09:48:46;;;;;;;4.93;4.43;;;10.50;99.90;;;;;;5069395;28;20028;-94
2023/12/29 09:51:16;;;;;;;6.85;4.63;;;10.50;99.90;;;;;;5065033;28;20031;-93
2023/12/29 09:53:42;;;;;;;5.55;5.05;;;10.60;99.90;;;;;;5074363;28;20013;-95
2023/12/29 09:56:14;;;;;;;5.68;5.07;;;10.50;99.90;;;;;;5089167;22;20575;-94
2023/12/29 09:58:41;;;;;;;6.60;6.00;;;10.60;99.90;;;;;;5061064;28;20526;-92
2023/12/29 10:01:06;;;;;;;5.15;4.75;;;10.60;99.90;;;;;;5061176;28;20033;-92
2023/12/29 10:03:32;;;;;;;5.40;4.90;;;10.80;99.90;;;;;;5060419;28;20112;-93
2023/12/29 10:06:03;;;;;;;3.97;2.30;;;10.90;99.90;;;;;;5058477;28;20032;-93
2023/12/29 10:08:31;;;;;;;4.30;2.72;;;11.00;99.90;;;;;;5052161;28;20511;-93
2023/12/29 10:11:00;;;;;;;5.03;3.08;;;11.00;99.90;;;;;;5041855;28;20044;-95
2023/12/29 10:13:27;;;;;;;5.22;4.53;;;11.20;99.90;;;;;;5051985;28;20263;-94
2023/12/29 10:16:15;;;;;;;;;;;11.20;99.90;;;;;;5058016;28;20135;-94
2023/12/29 10:19:00;;;;;;;4.03;3.67;;;11.10;99.90;;;;;;5043581;28;19905;-94
2023/12/29 10:22:02;;;;;;;4.15;3.33;;;11.30;99.90;;;;;;5042954;28;20021;-94
2023/12/29 10:24:28;;;;;;;5.00;4.60;;;11.40;99.90;;;;;;5036532;28;20033;-94
2023/12/29 10:26:56;;;;;;;4.32;3.35;;;11.40;99.90;;;;;;5044544;28;20036;-95
2023/12/29 10:29:23;;;;;;;4.32;3.92;;;11.60;99.70;;;;;;5064526;28;20075;-95
2023/12/29 10:31:49;;;;;;;3.45;3.15;;;11.70;99.00;;;;;;5050397;28;20069;-94
2023/12/29 10:34:28;;;;;;;6.15;5.75;;;11.70;98.20;;;;;;5064626;28;20023;-93
2023/12/29 10:37:08;;;;;;;6.05;5.53;;;11.70;97.60;;;;;;5045306;28;20100;-95
2023/12/29 10:39:37;;;;;;;;;;;11.60;98.10;;;;;;5056830;28;20068;-93
2023/12/29 10:42:07;;;;;;;5.05;4.55;;;11.80;97.70;;;;;;5062741;28;19909;-96
2023/12/29 10:44:37;;;;;;;5.30;4.90;;;11.80;95.80;;;;;;5064684;28;20013;-92
2023/12/29 10:47:12;;;;;;;5.38;4.85;;;11.90;96.00;;;;;;5060042;28;20025;-91
2023/12/29 10:49:41;;;;;;;4.57;4.18;;;11.90;95.90;;;;;;5055576;28;20026;-94
2023/12/29 10:52:15;;;;;;;4.38;3.83;;;12.00;95.60;;;;;;5032993;28;20031;-93
2023/12/29 10:54:42;;;;;;;3.50;2.88;;;12.20;94.60;;;;;;5054009;28;20017;-93
2023/12/29 10:57:11;;;;;;;4.50;4.10;;;12.20;92.40;;;;;;5048394;28;20037;-92
2023/12/29 10:59:37;;;;;;;4.78;4.15;;;12.30;93.30;;;;;;5061309;28;20020;-94
2023/12/29 11:02:03;;;;;;;4.13;3.72;;;12.30;90.70;;;;;;5063940;28;20017;-94
2023/12/29 11:04:29;;;;;;;2.45;2.20;;;12.30;90.50;;;;;;5051750;28;20402;-94
2023/12/29 11:06:55;;;;;;;4.03;3.67;;;12.40;90.70;;;;;;5049092;28;20033;-94
2023/12/29 11:09:31;;;;;;;2.80;2.50;;;12.60;87.60;;;;;;5051662;28;20026;-95
2023/12/29 11:12:01;;;;;;;4.60;4.30;;;12.70;88.00;;;;;;5058981;28;20036;-94
2023/12/29 11:14:30;;;;;;;3.72;3.42;;;12.70;87.80;;;;;;5059582;28;20013;-94
2023/12/29 11:16:58;;;;;;;3.60;3.28;;;13.00;86.90;;;;;;5059059;28;20024;-94
2023/12/29 11:19:24;;;;;;;4.28;3.72;;;12.80;87.10;;;;;;5038129;28;20025;-93
2023/12/29 11:21:56;;;;;;;2.78;1.48;;;13.10;84.60;;;;;;5049072;28;20422;-94
2023/12/29 11:24:22;;;;;;;4.50;4.10;;;13.20;83.30;;;;;;5056002;28;20089;-95
2023/12/29 11:26:52;;;;;;;4.10;3.80;;;13.30;83.20;;;;;;5058607;28;20025;-96
2023/12/29 11:29:18;;;;;;;4.18;3.65;;;13.30;81.20;;;;;;5027591;28;20025;-93
2023/12/29 11:31:48;;;;;;;3.47;3.17;;;13.30;81.30;;;;;;5034086;28;20040;-95
2023/12/29 11:34:18;;;;;;;3.97;3.67;;;13.30;81.00;;;;;;5058048;28;20055;-94
2023/12/29 11:36:46;;;;;;;4.35;4.13;;;13.30;82.20;;;;;;5049401;28;20052;-93
2023/12/29 11:39:38;;;;;;;3.50;3.20;;;13.50;80.90;;;;;;5054402;28;20036;-95
2023/12/29 11:42:27;;;;;;;3.75;3.40;;;13.00;81.30;;;;;;5052529;28;20683;-95
2023/12/29 11:44:52;;;;;;;4.80;4.50;;;12.90;83.60;;;;;;5044912;28;20048;-94
2023/12/29 11:47:38;;;;;;;3.65;3.35;;;12.70;84.30;;;;;;5063049;28;20032;-95
2023/12/29 11:50:05;;;;;;;3.92;3.47;;;12.50;86.70;;;;;;5060392;28;20033;-94
2023/12/29 11:52:40;;;;;;;3.50;2.72;;;12.30;87.10;;;;;;5035478;28;20024;-96
2023/12/29 11:55:12;;;;;;;4.07;3.17;;;12.20;88.60;;;;;;5051191;28;20032;-94
2023/12/29 11:57:40;;;;;;;4.22;3.83;;;12.20;89.60;;;;;;5061092;28;20029;-95
2023/12/29 12:00:07;;;;;;;3.88;3.58;;;12.60;88.90;;;;;;5041566;28;20025;-94
2023/12/29 12:02:33;;;;;;;3.22;2.92;;;13.00;86.20;;;;;;5061465;28;20013;-94
2023/12/29 12:04:58;;;;;;;3.70;3.17;;;12.80;85.50;;;;;;5041773;28;20063;-96
2023/12/29 12:07:33;;;;;;;4.05;3.70;;;12.70;86.80;;;;;;5052094;28;20025;-96
2023/12/29 12:10:20;;;;;;;4.22;3.92;;;12.40;87.90;;;;;;5051639;28;20032;-95
2023/12/29 12:12:51;;;;;;;3.40;3.10;;;12.20;89.60;;;;;;5043316;28;20032;-93
2023/12/29 12:15:31;;;;;;;3.83;3.45;;;12.10;90.00;;;;;;5056627;28;20017;-94
2023/12/29 12:18:10;;;;;;;6.20;4.53;;;12.10;90.80;;;;;;5038345;28;20029;-92
2023/12/29 12:20:36;;;;;;;4.40;4.05;;;11.90;91.10;;;;;;5037664;28;20022;-94
2023/12/29 12:23:07;;;;;;;5.13;4.72;;;11.90;92.40;;;;;;5045475;28;20036;-94
2023/12/29 12:25:34;;;;;;;4.80;4.40;;;12.00;92.00;;;;;;5058992;28;20028;-94
2023/12/29 12:28:04;;;;;;;3.55;3.22;;;12.00;91.00;;;;;;5054765;28;20055;-94
2023/12/29 12:30:34;;;;;;;4.63;4.30;;;12.00;91.60;;;;;;5059626;28;20060;-95
2023/12/29 12:33:02;;;;;;;4.57;4.28;;;12.00;91.40;;;;;;5057175;28;20017;-95
2023/12/29 12:35:28;;;;;;;4.70;4.30;;;11.90;92.70;;;;;;5049216;28;20021;-93
2023/12/29 12:38:07;;;;;;;3.53;3.22;;;11.90;92.70;;;;;;5037776;28;20044;-94
2023/12/29 12:40:33;;;;;;;4.60;3.92;;;11.90;92.40;;;;;;5057301;28;20021;-96
2023/12/29 12:42:59;;;;;;;4.63;4.22;;;11.90;91.50;;;;;;5045970;28;20024;-94
2023/12/29 12:45:27;;;;;;;4.10;3.75;;;11.90;92.40;;;;;;5060742;28;20069;-92
2023/12/29 12:47:59;;;;;;;3.42;3.13;;;11.90;92.10;;;;;;5072652;28;20025;-94
2023/12/29 12:50:26;;;;;;;4.13;3.72;;;11.80;91.50;;;;;;5052979;28;20017;-94
2023/12/29 12:52:52;;;;;;;5.15;4.75;;;11.80;90.20;;;;;;5070666;28;20031;-93
2023/12/29 12:55:18;;;;;;;4.50;3.25;;;11.90;88.70;;;;;;5047286;28;20029;-94